createdAt,value
2022-10-05T06:49:47.142Z,7.50
2022-10-05T06:55:16.560Z,7.50
2022-10-05T07:30:25.594Z,9.10
2022-10-05T07:35:42.362Z,9.30
2022-10-05T08:08:08.361Z,10.80
2022-10-05T08:13:13.687Z,11.10
2022-10-05T08:40:39.742Z,13.50
2022-10-05T08:46:17.865Z,13.80
2022-10-05T08:51:27.658Z,14.20
2022-10-05T09:15:23.730Z,15.50
2022-10-05T09:20:32.357Z,15.70
2022-10-05T09:25:39.991Z,15.90
2022-10-05T09:30:54.177Z,16.20
2022-10-05T09:36:24.159Z,16.60
2022-10-05T09:41:56.761Z,16.80
2022-10-05T09:47:18.350Z,17.10
2022-10-05T09:52:54.577Z,17.30
2022-10-05T09:58:28.395Z,17.70
2022-10-05T10:03:43.134Z,18.00
2022-10-05T10:08:47.403Z,18.20
2022-10-05T10:14:08.472Z,18.60
2022-10-05T10:19:20.101Z,19.00
2022-10-05T10:24:26.225Z,19.40
2022-10-05T10:29:46.172Z,19.80
2022-10-05T10:40:27.133Z,20.40
2022-10-05T10:45:30.168Z,21.10
2022-10-05T10:50:52.554Z,21.40
2022-10-05T10:55:57.351Z,21.50
2022-10-05T11:00:56.726Z,21.30
2022-10-05T11:06:13.798Z,21.60
2022-10-05T11:11:36.351Z,22.00
2022-10-05T11:17:02.698Z,22.20
2022-10-05T11:22:12.651Z,22.20
2022-10-05T11:27:48.395Z,22.20
2022-10-05T11:33:35.907Z,22.40
2022-10-05T11:39:02.283Z,23.00
2022-10-05T11:44:26.298Z,23.00
2022-10-05T11:49:28.696Z,23.40
2022-10-05T11:54:58.594Z,23.60
2022-10-05T11:59:58.510Z,24.00
2022-10-05T12:05:01.623Z,23.90
2022-10-05T12:10:22.801Z,24.10
2022-10-05T12:15:25.074Z,24.20
2022-10-05T12:20:24.680Z,24.20
2022-10-05T12:25:27.194Z,24.20
2022-10-05T12:30:31.038Z,23.90
2022-10-05T12:35:47.499Z,23.60
2022-10-05T12:40:46.687Z,23.30
2022-10-05T12:46:08.239Z,23.10
2022-10-05T12:51:09.775Z,22.80
2022-10-05T12:56:10.217Z,22.70
2022-10-05T13:01:15.686Z,22.60
2022-10-05T13:06:19.141Z,22.80
2022-10-05T13:11:19.037Z,23.30
2022-10-05T13:16:24.820Z,23.50
2022-10-05T13:21:22.627Z,23.30
2022-10-05T13:26:27.295Z,23.50
2022-10-05T13:31:29.632Z,23.60
2022-10-05T13:36:34.344Z,23.50
2022-10-05T13:41:39.889Z,23.50
2022-10-05T13:46:40.980Z,23.70
2022-10-05T13:51:42.790Z,24.20
2022-10-05T13:56:41.846Z,24.10
2022-10-05T14:01:43.762Z,23.30
2022-10-05T14:06:39.264Z,22.90
2022-10-05T14:11:35.448Z,22.40
2022-10-05T14:16:29.467Z,22.10
2022-10-05T14:21:26.689Z,22.00
2022-10-05T14:26:32.718Z,21.90
2022-10-05T14:31:35.725Z,22.00
2022-10-05T14:36:40.425Z,21.80
2022-10-05T14:41:37.787Z,21.60
2022-10-05T14:46:33.662Z,21.60
2022-10-05T14:51:32.189Z,21.80
2022-10-05T14:56:48.159Z,21.90
2022-10-05T15:01:54.049Z,21.90
2022-10-05T15:07:00.611Z,21.70
2022-10-05T15:12:01.594Z,21.70
2022-10-05T15:16:59.119Z,21.50
2022-10-05T15:22:05.874Z,21.10
2022-10-05T15:27:04.846Z,20.70
2022-10-05T15:32:04.586Z,20.30
2022-10-05T15:37:07.939Z,20.10
2022-10-05T15:42:05.589Z,19.80
2022-10-05T15:47:05.118Z,19.70
2022-10-05T15:52:05.885Z,19.40
2022-10-05T15:57:09.731Z,19.20
2022-10-05T16:02:13.824Z,18.90
2022-10-05T16:07:30.889Z,18.50
2022-10-05T16:12:35.474Z,18.30
2022-10-05T16:17:51.239Z,17.90
2022-10-05T16:22:52.062Z,17.50
2022-10-05T16:28:05.772Z,17.40
2022-10-05T16:33:07.698Z,17.10
2022-10-05T16:38:12.088Z,16.90
2022-10-05T16:43:20.292Z,16.70
2022-10-05T16:48:22.425Z,16.60
2022-10-05T16:53:20.991Z,16.30
2022-10-05T16:58:23.983Z,16.20
2022-10-05T17:03:28.773Z,16.00
2022-10-05T17:08:49.847Z,15.90
2022-10-05T17:14:05.407Z,15.70
2022-10-05T17:19:26.904Z,15.50
2022-10-05T17:24:40.390Z,15.40
2022-10-05T17:29:50.816Z,15.30
2022-10-05T17:35:19.293Z,15.10
2022-10-05T17:40:35.446Z,14.90
2022-10-05T17:46:00.711Z,14.80
2022-10-05T17:51:11.707Z,14.70
2022-10-05T17:56:06.925Z,14.60
2022-10-05T18:01:17.678Z,14.50
